createdAt,value
2023-03-20T00:02:50.016Z,100.00
2023-03-20T00:07:42.392Z,100.00
2023-03-20T00:12:33.980Z,100.00
2023-03-20T00:17:25.704Z,100.00
2023-03-20T00:22:17.344Z,100.00
2023-03-20T00:27:17.023Z,100.00
2023-03-20T00:32:13.190Z,100.00
2023-03-20T00:37:05.530Z,100.00
2023-03-20T00:42:06.959Z,100.00
2023-03-20T00:47:01.514Z,100.00
2023-03-20T00:51:53.191Z,100.00
2023-03-20T00:57:02.941Z,100.00
2023-03-20T01:01:54.790Z,100.00
2023-03-20T01:06:48.419Z,100.00
2023-03-20T01:11:41.703Z,100.00
2023-03-20T01:16:33.355Z,100.00
2023-03-20T01:21:25.045Z,100.00
2023-03-20T01:26:36.677Z,100.00
2023-03-20T01:31:28.366Z,100.00
2023-03-20T01:36:23.017Z,100.00
2023-03-20T01:41:17.045Z,100.00
2023-03-20T01:46:12.160Z,100.00
2023-03-20T01:51:04.119Z,100.00
2023-03-20T01:55:59.863Z,100.00
2023-03-20T02:00:51.847Z,100.00
2023-03-20T02:05:45.037Z,100.00
2023-03-20T02:10:36.987Z,100.00
2023-03-20T02:15:30.792Z,100.00
2023-03-20T02:20:22.959Z,100.00
2023-03-20T02:25:37.247Z,100.00
2023-03-20T02:31:06.341Z,100.00
2023-03-20T02:36:36.250Z,100.00
2023-03-20T02:41:40.072Z,100.00
2023-03-20T02:46:58.882Z,100.00
2023-03-20T02:52:05.576Z,100.00
2023-03-20T02:56:59.802Z,100.00
2023-03-20T03:01:55.831Z,100.00
2023-03-20T03:06:50.614Z,100.00
2023-03-20T03:11:48.569Z,100.00
2023-03-20T03:16:41.242Z,100.00
2023-03-20T03:21:34.018Z,100.00
2023-03-20T03:26:29.051Z,100.00
2023-03-20T03:31:22.077Z,100.00
2023-03-20T03:36:38.403Z,100.00
2023-03-20T03:41:40.093Z,100.00
2023-03-20T03:46:44.560Z,100.00
2023-03-20T03:51:42.718Z,100.00
2023-03-20T03:56:37.201Z,100.00
2023-03-20T04:01:35.288Z,100.00
2023-03-20T04:06:27.596Z,100.00
2023-03-20T04:11:21.965Z,100.00
2023-03-20T04:16:14.396Z,100.00
2023-03-20T04:21:06.875Z,100.00
2023-03-20T04:25:58.619Z,100.00
2023-03-20T04:31:01.191Z,100.00
2023-03-20T04:35:53.152Z,100.00
2023-03-20T04:40:46.723Z,100.00
2023-03-20T04:45:38.849Z,100.00
2023-03-20T04:50:30.905Z,100.00
2023-03-20T04:55:22.725Z,100.00
2023-03-20T05:00:15.458Z,100.00
2023-03-20T05:05:07.564Z,100.00
2023-03-20T05:09:59.576Z,100.00
2023-03-20T05:14:51.163Z,100.00
2023-03-20T05:19:43.290Z,100.00
2023-03-20T05:24:34.955Z,100.00
2023-03-20T05:29:26.560Z,100.00
2023-03-20T05:34:18.434Z,100.00
2023-03-20T05:39:10.716Z,100.00
2023-03-20T05:44:02.322Z,100.00
2023-03-20T05:48:54.707Z,100.00
2023-03-20T05:53:46.297Z,100.00
2023-03-20T05:58:38.045Z,100.00
2023-03-20T06:03:29.792Z,100.00
2023-03-20T06:08:21.436Z,100.00
2023-03-20T06:13:13.183Z,100.00
2023-03-20T06:18:04.873Z,100.00
2023-03-20T06:22:56.536Z,100.00
2023-03-20T06:27:49.098Z,100.00
2023-03-20T06:32:40.999Z,100.00
2023-03-20T06:37:34.257Z,100.00
2023-03-20T06:42:25.926Z,100.00
2023-03-20T06:47:17.627Z,100.00
2023-03-20T06:52:16.464Z,100.00
2023-03-20T06:57:08.104Z,100.00
2023-03-20T07:02:00.362Z,100.00
2023-03-20T07:06:52.240Z,100.00
2023-03-20T07:11:45.195Z,100.00
2023-03-20T07:16:36.781Z,100.00
2023-03-20T07:21:28.842Z,100.00
2023-03-20T07:26:20.804Z,100.00
2023-03-20T07:31:27.155Z,100.00
2023-03-20T07:36:18.775Z,100.00
2023-03-20T07:41:10.698Z,100.00
2023-03-20T07:46:04.394Z,100.00
2023-03-20T07:50:56.114Z,100.00
2023-03-20T07:55:47.728Z,100.00
2023-03-20T08:00:39.395Z,100.00
2023-03-20T08:05:31.072Z,100.00
2023-03-20T08:10:22.766Z,100.00
2023-03-20T08:15:14.557Z,100.00
2023-03-20T08:20:07.433Z,100.00
2023-03-20T08:24:59.081Z,100.00
2023-03-20T08:29:50.883Z,100.00
2023-03-20T08:34:42.583Z,100.00
2023-03-20T08:39:35.927Z,100.00
2023-03-20T08:44:27.665Z,100.00
2023-03-20T08:49:19.564Z,100.00
2023-03-20T08:54:11.315Z,100.00
2023-03-20T08:59:03.127Z,100.00
2023-03-20T09:03:54.714Z,100.00
2023-03-20T09:08:46.441Z,100.00
2023-03-20T09:13:38.254Z,100.00
2023-03-20T09:18:29.932Z,100.00
2023-03-20T09:23:21.648Z,100.00
2023-03-20T09:28:13.302Z,100.00
2023-03-20T09:33:05.197Z,100.00
2023-03-20T09:37:56.966Z,100.00
2023-03-20T09:43:19.077Z,100.00
2023-03-20T09:48:25.588Z,100.00
2023-03-20T09:53:32.998Z,100.00
2023-03-20T09:58:33.778Z,100.00
2023-03-20T10:03:33.646Z,100.00
2023-03-20T10:08:32.869Z,100.00
2023-03-20T10:13:33.640Z,100.00
2023-03-20T10:18:28.006Z,100.00
2023-03-20T10:23:42.295Z,100.00
2023-03-20T10:28:45.052Z,100.00
2023-03-20T10:34:18.037Z,100.00
2023-03-20T10:39:18.564Z,100.00
2023-03-20T10:44:46.419Z,100.00
2023-03-20T10:49:46.521Z,100.00
2023-03-20T10:54:44.336Z,100.00
2023-03-20T10:59:42.909Z,100.00
2023-03-20T11:04:34.767Z,100.00
2023-03-20T11:09:32.898Z,99.80
2023-03-20T11:14:27.477Z,95.50
2023-03-20T11:19:24.023Z,94.47
2023-03-20T11:24:26.030Z,92.48
2023-03-20T11:29:31.445Z,91.10
2023-03-20T11:34:26.704Z,90.75
2023-03-20T11:39:32.677Z,93.33
2023-03-20T11:44:30.103Z,94.07
2023-03-20T11:49:28.294Z,91.79
2023-03-20T11:54:24.007Z,88.80
2023-03-20T11:59:19.876Z,88.13
2023-03-20T12:04:18.724Z,87.15
2023-03-20T12:09:19.217Z,84.08
2023-03-20T12:14:52.819Z,82.63
2023-03-20T12:19:46.356Z,79.15
2023-03-20T12:24:44.698Z,78.10
2023-03-20T12:29:59.986Z,80.03
2023-03-20T12:34:59.777Z,79.29
2023-03-20T12:39:56.493Z,78.27
2023-03-20T12:45:14.790Z,78.46
2023-03-20T12:50:06.392Z,79.05
2023-03-20T12:55:29.770Z,79.97
2023-03-20T13:00:33.386Z,80.76
2023-03-20T13:05:46.148Z,83.08
2023-03-20T13:10:41.735Z,81.57
2023-03-20T13:16:02.270Z,80.46
2023-03-20T13:21:00.271Z,81.01
2023-03-20T13:26:15.112Z,80.53
2023-03-20T13:31:34.052Z,79.15
2023-03-20T13:36:31.366Z,80.68
2023-03-20T13:41:25.348Z,81.36
2023-03-20T13:46:22.653Z,80.48
2023-03-20T13:51:38.326Z,79.24
2023-03-20T13:56:43.578Z,80.80
2023-03-20T14:01:47.409Z,81.50
2023-03-20T14:06:52.112Z,80.28
2023-03-20T14:11:43.837Z,79.82
2023-03-20T14:16:35.583Z,79.10
2023-03-20T14:21:28.973Z,81.02
2023-03-20T14:26:23.078Z,80.51
2023-03-20T14:31:25.586Z,80.73
2023-03-20T14:36:29.246Z,80.54
2023-03-20T14:41:49.396Z,80.91
2023-03-20T14:46:48.810Z,80.96
2023-03-20T14:51:47.187Z,80.43
2023-03-20T14:56:39.126Z,81.34
2023-03-20T15:01:40.094Z,80.41
2023-03-20T15:06:33.549Z,80.24
2023-03-20T15:11:26.305Z,81.44
2023-03-20T15:16:27.212Z,81.59
2023-03-20T15:21:21.828Z,83.00
2023-03-20T15:26:19.873Z,84.59
2023-03-20T15:31:27.706Z,85.13
2023-03-20T15:36:22.717Z,87.17
2023-03-20T15:41:24.675Z,87.43
2023-03-20T15:46:18.734Z,88.01
2023-03-20T15:51:11.520Z,88.61
2023-03-20T15:56:17.704Z,89.94
2023-03-20T16:01:17.507Z,90.71
2023-03-20T16:06:12.251Z,91.38
2023-03-20T16:11:15.471Z,92.60
2023-03-20T16:16:11.973Z,94.25
2023-03-20T16:21:07.416Z,95.28
2023-03-20T16:26:00.088Z,96.13
2023-03-20T16:30:51.922Z,97.69
2023-03-20T16:35:47.567Z,99.64
2023-03-20T16:40:39.515Z,100.00
2023-03-20T16:45:34.361Z,100.00
2023-03-20T16:50:36.703Z,100.00
2023-03-20T16:55:31.764Z,100.00
2023-03-20T17:00:27.465Z,100.00
2023-03-20T17:05:21.024Z,100.00
2023-03-20T17:10:21.705Z,100.00
2023-03-20T17:15:19.524Z,100.00
2023-03-20T17:20:30.988Z,100.00
2023-03-20T17:25:22.958Z,100.00
2023-03-20T17:30:19.640Z,100.00
2023-03-20T17:35:12.152Z,100.00
2023-03-20T17:40:04.822Z,100.00
2023-03-20T17:44:58.016Z,100.00
2023-03-20T17:49:52.210Z,100.00
2023-03-20T17:54:44.673Z,100.00
2023-03-20T17:59:36.408Z,100.00
2023-03-20T18:04:28.051Z,100.00
2023-03-20T18:09:20.825Z,100.00
2023-03-20T18:14:12.711Z,100.00
2023-03-20T18:19:04.443Z,100.00
2023-03-20T18:23:56.206Z,100.00
2023-03-20T18:28:49.441Z,100.00
2023-03-20T18:33:41.049Z,100.00
2023-03-20T18:38:32.640Z,100.00
2023-03-20T18:43:24.285Z,100.00
2023-03-20T18:48:16.629Z,100.00
2023-03-20T18:53:09.965Z,100.00
2023-03-20T18:58:06.329Z,100.00
2023-03-20T19:02:58.145Z,100.00
2023-03-20T19:07:49.924Z,100.00
2023-03-20T19:12:41.556Z,100.00
2023-03-20T19:17:33.171Z,100.00
2023-03-20T19:22:29.557Z,100.00
2023-03-20T19:27:21.589Z,100.00
2023-03-20T19:32:13.210Z,100.00
2023-03-20T19:37:04.806Z,100.00
2023-03-20T19:42:12.042Z,100.00
2023-03-20T19:47:09.683Z,100.00
2023-03-20T19:52:04.213Z,100.00
2023-03-20T19:56:55.822Z,100.00
2023-03-20T20:01:47.666Z,100.00
2023-03-20T20:06:39.931Z,100.00
2023-03-20T20:11:33.061Z,100.00
2023-03-20T20:16:24.733Z,100.00
2023-03-20T20:22:10.113Z,100.00
2023-03-20T20:26:31.064Z,100.00
2023-03-20T20:31:31.086Z,100.00
2023-03-20T20:41:34.773Z,100.00
2023-03-20T20:46:26.590Z,100.00
2023-03-20T20:51:19.158Z,100.00
2023-03-20T20:56:10.958Z,100.00
2023-03-20T21:01:03.524Z,100.00
2023-03-20T21:05:56.060Z,100.00
2023-03-20T21:10:47.987Z,100.00
2023-03-20T21:15:40.043Z,100.00
2023-03-20T21:20:33.094Z,100.00
2023-03-20T21:25:38.740Z,100.00
2023-03-20T21:30:31.583Z,100.00
2023-03-20T21:35:23.339Z,100.00
2023-03-20T21:40:15.014Z,100.00
2023-03-20T22:37:46.651Z,100.00
2023-03-20T22:42:49.593Z,100.00
2023-03-20T22:47:31.906Z,100.00
2023-03-20T22:52:34.883Z,100.00
2023-03-20T22:57:42.371Z,100.00
2023-03-20T23:02:39.162Z,100.00
2023-03-20T23:07:30.755Z,100.00
2023-03-20T23:12:22.395Z,100.00
2023-03-20T23:17:14.255Z,100.00
2023-03-20T23:22:06.100Z,100.00
2023-03-20T23:26:57.808Z,100.00
2023-03-20T23:31:49.542Z,100.00
2023-03-20T23:36:42.488Z,100.00
2023-03-20T23:42:04.585Z,100.00
2023-03-20T23:46:48.172Z,100.00
2023-03-20T23:51:40.001Z,100.00
2023-03-20T23:56:31.641Z,100.00
